Fort Leonard Wood, MO

2:31 PM CDT on June 25, 2017 (GMT -0500)
Waynesville Regional At Forney Field

Weather History for KTBN - February, 2013

Change the Weather History Date:

Tuesday, February 26, 2013

  Actual Average Record
Temperature  
Mean Temperature 33 °F -  
Max Temperature 34 °F 46 °F 66 °F (2009)
Min Temperature 31 °F 31 °F 9 °F (2014)
Degree Days  
Heating Degree Days 32    
Moisture  
Dew Point 33 °F    
Average Humidity 99    
Maximum Humidity 100    
Minimum Humidity 93    
Precipitation  
Precipitation 0.39 in - - ()
Snow  
Snow 0.00 in - - ()
Snow Depth 1.00 in    
Sea Level Pressure  
Sea Level Pressure 29.47 in    
Wind  
Wind Speed 12 mph (NNW)    
Max Wind Speed 21 mph    
Max Gust Speed 29 mph    
Visibility 7 miles    
Events Rain , Snow    
Averages and records for this station are not official NWS values.
T = Trace of Precipitation, MM = Missing Value Source: NWS Daily Summary

Daily Weather History Graph

Daily Weather History Graph

Search for Another Location

Airport or City:

Trip Planner

Search our weather history database for the weather conditions in past years. The results will help you decide how hot, cold, wet, or windy it might be!

Date:

Astronomy

Feb. 26, 2013 Rise Set
Actual Time 6:43 AM CST 5:59 PM CST
Civil Twilight 6:17 AM CST 6:25 PM CST
Nautical Twilight 5:47 AM CST 6:56 PM CST
Astronomical Twilight 5:16 AM CST 7:26 PM CST
Moon 7:14 PM CST (2/26) 6:48 AM CST (2/26)
Length of Visible Light 12h 08m
Length of Day
11h 15m
Full, 99% of the Moon is Illuminated
Feb 26
Full
Mar 4
Last Quarter
Mar 11
New
Mar 19
First Quarter
Mar 27
Full

Hourly Weather History & Observations

Time (CST) Temp. Windchill Dew Point Humidity Pressure Visibility Wind Dir Wind Speed Gust Speed Precip Events Conditions
12:24 AM 33.8 °F 22.8 °F 33.8 °F 100% 29.43 in 10.0 mi NE 18.4 mph 27.6 mph N/A Rain Light Rain
12:55 AM 34.0 °F 24.2 °F 33.8 °F 99% 29.42 in 6.0 mi NE 15.0 mph 28.8 mph 0.12 in Rain Rain
12:56 AM 33.8 °F 22.8 °F 33.8 °F 100% 29.42 in 6.0 mi NE 18.4 mph 28.8 mph N/A Rain Rain
1:07 AM 33.8 °F 22.2 °F 33.8 °F 100% 29.42 in 7.0 mi ENE 20.7 mph 24.2 mph N/A Rain Rain
1:22 AM 33.8 °F 23.5 °F 33.8 °F 100% 29.41 in 10.0 mi NE 16.1 mph 24.2 mph N/A Rain Light Rain
1:26 AM 33.8 °F 23.5 °F 33.8 °F 100% 29.40 in 10.0 mi NE 16.1 mph 24.2 mph N/A   Overcast
1:28 AM 33.8 °F 23.2 °F 33.8 °F 100% 29.40 in 10.0 mi ENE 17.3 mph 23.0 mph N/A   Light Drizzle
1:32 AM 33.8 °F 25.8 °F 33.8 °F 100% 29.39 in 7.0 mi NE 10.4 mph 23.0 mph N/A   Overcast
1:33 AM 33.8 °F 24.8 °F 33.8 °F 100% 29.39 in 7.0 mi NE 12.7 mph 23.0 mph N/A   Overcast
1:44 AM 33.8 °F 25.3 °F 33.8 °F 100% 29.39 in 7.0 mi NE 11.5 mph - N/A Rain Light Rain
1:49 AM 33.8 °F 24.3 °F 33.8 °F 100% 29.39 in 9.0 mi NE 13.8 mph - N/A Rain Light Rain
1:55 AM 34.0 °F 23.8 °F 33.8 °F 99% 29.39 in 10.0 mi NE 16.1 mph - 0.04 in Rain Light Rain
2:01 AM 33.8 °F 23.5 °F 33.8 °F 100% 29.39 in 6.0 mi NE 16.1 mph - N/A   Overcast
2:06 AM 33.8 °F 23.2 °F 33.8 °F 100% 29.38 in 4.0 mi NE 17.3 mph 25.3 mph N/A   Overcast
2:31 AM 33.8 °F 25.3 °F 33.8 °F 100% 29.36 in 4.0 mi NE 11.5 mph - N/A   Overcast
2:52 AM 33.8 °F 24.8 °F 33.8 °F 100% 29.35 in 5.0 mi NE 12.7 mph 23.0 mph N/A   Light Drizzle
2:55 AM 33.6 °F 24.6 °F 33.4 °F 99% 29.35 in 5.0 mi NE 12.7 mph 23.0 mph 0.04 in   Light Drizzle
3:01 AM 33.8 °F 25.3 °F 33.8 °F 100% 29.35 in 6.0 mi NE 11.5 mph - N/A   Light Drizzle
3:11 AM 33.8 °F 27.0 °F 33.8 °F 100% 29.35 in 10.0 mi NE 8.1 mph - N/A   Overcast
3:13 AM 33.8 °F 25.8 °F 33.8 °F 100% 29.35 in 9.0 mi NE 10.4 mph - N/A   Overcast
3:14 AM 33.8 °F 25.3 °F 33.8 °F 100% 29.35 in 8.0 mi NE 11.5 mph - N/A Rain Light Rain
3:23 AM 33.8 °F 24.3 °F 33.8 °F 100% 29.34 in 3.0 mi NNE 13.8 mph - N/A Rain Light Rain
3:27 AM 33.8 °F 24.8 °F 33.8 °F 100% 29.33 in 2.5 mi NE 12.7 mph 18.4 mph N/A Rain Light Rain
3:34 AM 33.8 °F 25.3 °F 32.0 °F 93% 29.33 in 2.5 mi NE 11.5 mph 20.7 mph N/A Snow Light Snow
3:40 AM 33.8 °F 24.3 °F 32.0 °F 93% 29.33 in 2.5 mi NE 13.8 mph 20.7 mph N/A Snow Light Snow
3:48 AM 33.8 °F 24.8 °F 32.0 °F 93% 29.32 in 3.0 mi NE 12.7 mph - N/A Snow Light Snow
3:52 AM 33.8 °F 25.8 °F 32.0 °F 93% 29.32 in 4.0 mi NE 10.4 mph - N/A Snow Light Snow
3:55 AM 33.1 °F 24.9 °F 32.7 °F 99% 29.32 in 7.0 mi NE 10.4 mph - 0.09 in Snow Light Snow
4:55 AM 32.9 °F 25.9 °F 32.9 °F 100% 29.31 in 7.0 mi NE 8.1 mph - 0.01 in Rain Light Rain
5:54 AM 32.0 °F - 32.0 °F 100% 29.32 in 4.0 mi Calm Calm - N/A Snow Light Snow
5:55 AM 32.7 °F 29.6 °F 32.7 °F 100% 29.32 in 4.0 mi NNW 3.5 mph - 0.02 in Snow Light Snow
6:18 AM 32.0 °F 27.5 °F 32.0 °F 100% 29.32 in 3.0 mi NW 4.6 mph - N/A Snow Light Snow
6:31 AM 32.0 °F 27.5 °F 32.0 °F 100% 29.32 in 3.0 mi NW 4.6 mph - N/A Snow Light Snow
6:39 AM 32.0 °F 26.4 °F 32.0 °F 100% 29.32 in 2.5 mi NW 5.8 mph - N/A Snow Light Snow
6:43 AM 32.0 °F 25.6 °F 32.0 °F 100% 29.32 in 1.8 mi NW 6.9 mph - N/A Snow Light Snow
6:45 AM 32.0 °F 26.4 °F 32.0 °F 100% 29.33 in 1.5 mi NW 5.8 mph - N/A Snow Light Snow
6:50 AM 32.0 °F 25.6 °F 32.0 °F 100% 29.32 in 1.8 mi NW 6.9 mph - N/A Snow Light Snow
6:53 AM 32.0 °F 26.4 °F 32.0 °F 100% 29.32 in 2.0 mi NW 5.8 mph - N/A Snow Light Snow
6:55 AM 32.2 °F 25.8 °F 32.2 °F 100% 29.32 in 2.0 mi NW 6.9 mph - 0.05 in Snow Light Snow
7:55 AM 32.2 °F 25.8 °F 32.2 °F 100% 29.34 in 2.0 mi NW 6.9 mph - 0.01 in Snow Light Snow
8:55 AM 32.2 °F 23.8 °F 32.2 °F 100% 29.36 in 4.0 mi NW 10.4 mph - 0.01 in Snow Light Snow
9:33 AM 32.0 °F 24.2 °F 32.0 °F 100% 29.37 in 4.0 mi NW 9.2 mph - N/A   Overcast
9:47 AM 32.0 °F 24.8 °F 32.0 °F 100% 29.37 in 2.5 mi NW 8.1 mph - N/A Snow Light Snow
9:53 AM 32.0 °F 24.8 °F 32.0 °F 100% 29.37 in 3.0 mi NW 8.1 mph - N/A Snow Light Snow
9:55 AM 32.4 °F 24.0 °F 32.4 °F 100% 29.37 in 3.0 mi NW 10.4 mph - 0.00 in Snow Light Snow
9:59 AM 32.0 °F 23.6 °F 32.0 °F 100% 29.45 in 2.0 mi NW 10.4 mph - N/A Snow Light Snow
10:41 AM 32.0 °F 24.2 °F 32.0 °F 100% 29.35 in 4.0 mi NNW 9.2 mph - N/A Snow Light Snow
10:55 AM 33.3 °F 25.1 °F 33.3 °F 100% 29.39 in 10.0 mi NNW 10.4 mph - 0.00 in   Overcast
11:55 AM 33.3 °F 25.7 °F 33.3 °F 100% 29.42 in 10.0 mi WNW 9.2 mph - N/A   Overcast
12:17 PM 33.8 °F 26.4 °F 33.8 °F 100% 29.44 in 10.0 mi WNW 9.2 mph - N/A   Overcast
12:28 PM 33.8 °F 25.8 °F 33.8 °F 100% 29.44 in 10.0 mi West 10.4 mph - N/A   Overcast
12:36 PM 33.8 °F 27.0 °F 33.8 °F 100% 29.44 in 10.0 mi WNW 8.1 mph - N/A   Overcast
12:55 PM 33.3 °F 25.7 °F 33.3 °F 100% 29.45 in 5.0 mi WNW 9.2 mph - 0.00 in Rain Light Rain
1:55 PM 33.3 °F 23.7 °F 33.3 °F 100% 29.47 in 6.0 mi WNW 13.8 mph - 0.00 in   Light Drizzle
2:31 PM 33.8 °F 25.8 °F 33.8 °F 100% 29.49 in 10.0 mi WNW 10.4 mph 17.3 mph N/A   Light Drizzle
2:39 PM 33.8 °F 24.3 °F 33.8 °F 100% 29.49 in 10.0 mi WNW 13.8 mph 19.6 mph N/A   Overcast
2:42 PM 33.8 °F 26.4 °F 33.8 °F 100% 29.49 in 10.0 mi WNW 9.2 mph 19.6 mph N/A   Overcast
2:43 PM 33.8 °F 26.4 °F 33.8 °F 100% 29.49 in 10.0 mi WNW 9.2 mph 19.6 mph N/A   Light Drizzle
2:53 PM 33.8 °F 25.3 °F 33.8 °F 100% 29.50 in 10.0 mi WNW 11.5 mph - N/A   Overcast
2:55 PM 33.8 °F 26.4 °F 33.8 °F 100% 29.50 in 10.0 mi WNW 9.2 mph - 0.00 in   Overcast
3:19 PM 33.8 °F 25.8 °F 33.8 °F 100% 29.52 in 10.0 mi WNW 10.4 mph 18.4 mph N/A   Overcast
3:26 PM 33.8 °F 25.3 °F 33.8 °F 100% 29.52 in 10.0 mi WNW 11.5 mph - N/A   Overcast
3:55 PM 33.6 °F 25.0 °F 33.4 °F 99% 29.54 in 10.0 mi WNW 11.5 mph - N/A   Overcast
4:36 PM 33.8 °F 25.3 °F 33.8 °F 100% 29.56 in 10.0 mi WNW 11.5 mph - N/A   Light Drizzle
4:42 PM 33.8 °F 27.0 °F 33.8 °F 100% 29.57 in 10.0 mi WNW 8.1 mph - N/A   Overcast
4:44 PM 33.8 °F 25.8 °F 33.8 °F 100% 29.57 in 10.0 mi WNW 10.4 mph - N/A   Light Drizzle
4:46 PM 33.8 °F 25.8 °F 33.8 °F 100% 29.57 in 10.0 mi WNW 10.4 mph - N/A   Overcast
4:55 PM 33.3 °F 25.1 °F 33.1 °F 99% 29.57 in 10.0 mi WNW 10.4 mph - 0.00 in   Overcast
5:06 PM 33.8 °F 25.8 °F 33.8 °F 100% 29.58 in 10.0 mi WNW 10.4 mph 18.4 mph N/A   Overcast
5:55 PM 33.1 °F 23.9 °F 32.5 °F 98% 29.61 in 10.0 mi WNW 12.7 mph 18.4 mph N/A   Overcast
6:13 PM 33.8 °F 26.4 °F 32.0 °F 93% 29.63 in 10.0 mi WNW 9.2 mph - N/A   Overcast
6:15 PM 33.8 °F 26.4 °F 32.0 °F 93% 29.63 in 10.0 mi WNW 9.2 mph - N/A   Overcast
6:28 PM 33.8 °F 25.3 °F 32.0 °F 93% 29.64 in 10.0 mi West 11.5 mph - N/A   Overcast
6:55 PM 32.7 °F 25.7 °F 32.2 °F 98% 29.66 in 10.0 mi WNW 8.1 mph 16.1 mph 0.00 in   Overcast
7:55 PM 32.7 °F 24.5 °F 32.0 °F 97% 29.69 in 10.0 mi WNW 10.4 mph - N/A   Overcast
8:55 PM 32.7 °F 24.5 °F 32.0 °F 97% 29.73 in 10.0 mi West 10.4 mph 17.3 mph N/A   Overcast
9:03 PM 32.0 °F 24.8 °F 32.0 °F 100% 29.73 in 10.0 mi West 8.1 mph - N/A   Overcast
9:14 PM 32.0 °F 25.6 °F 32.0 °F 100% 29.73 in 7.0 mi West 6.9 mph - N/A   Overcast
9:19 PM 32.0 °F 24.8 °F 32.0 °F 100% 29.74 in 6.0 mi West 8.1 mph - N/A   Overcast
9:25 PM 32.0 °F 24.2 °F 32.0 °F 100% 29.74 in 5.0 mi West 9.2 mph - N/A   Overcast
9:31 PM 32.0 °F 24.8 °F 32.0 °F 100% 29.75 in 5.0 mi West 8.1 mph - N/A   Light Freezing Drizzle
9:55 PM 32.0 °F 24.8 °F 31.8 °F 99% 29.75 in 4.0 mi West 8.1 mph - 0.00 in   Light Freezing Drizzle
10:44 PM 32.0 °F 24.8 °F 32.0 °F 100% 29.75 in 6.0 mi West 8.1 mph - N/A   Overcast
10:55 PM 32.0 °F 24.2 °F 32.0 °F 100% 29.75 in 7.0 mi West 9.2 mph - 0.00 in   Overcast
11:05 PM 32.0 °F 25.6 °F 32.0 °F 100% 29.76 in 7.0 mi West 6.9 mph - N/A   Overcast
11:09 PM 32.0 °F 23.6 °F 32.0 °F 100% 29.76 in 7.0 mi West 10.4 mph - N/A   Overcast
11:18 PM 32.0 °F 24.2 °F 32.0 °F 100% 29.76 in 8.0 mi West 9.2 mph - N/A   Overcast
11:55 PM 31.6 °F 23.7 °F 31.6 °F 100% 29.77 in 10.0 mi WNW 9.2 mph - N/A   Overcast